Time;durP1;ratioP1;P1;durP2;ratioP2;P2;SDS_P1;SDS_P2;PMS_P1;PMS_P2;Temp;Humidity;BMP_temperature;BMP_pressure;BME280_temperature;BME280_humidity;BME280_pressure;Samples;Min_cycle;Max_cycle;Signal;HPM_P1;HPM_P2
2024/01/13 00:00:09;;;;;;;33.63;21.38;;;;;;;;;;496754;28;1105;-74
2024/01/13 00:00:24;;;;;;;34.58;21.92;;;;;;;;;;502978;28;1200;-74
2024/01/13 00:00:40;;;;;;;34.67;22.20;;;;;;;;;;500207;28;1307;-75
2024/01/13 00:00:56;;;;;;;34.92;22.15;;;;;;;;;;508212;28;946;-73
2024/01/13 00:01:11;;;;;;;36.58;23.33;;;;;;;;;;497632;28;1322;-74
2024/01/13 00:01:27;;;;;;;51.20;32.13;;;;;;;;;;493430;28;1398;-74
2024/01/13 00:01:43;;;;;;;57.80;36.40;;;;;;;;;;493431;28;1178;-75
2024/01/13 00:01:58;;;;;;;60.97;38.15;;;;;;;;;;490769;28;1031;-75
2024/01/13 00:02:14;;;;;;;67.47;41.50;;;;;;;;;;497862;28;1184;-74
2024/01/13 00:02:29;;;;;;;59.25;36.53;;;;;;;;;;504826;28;1348;-74
2024/01/13 00:02:45;;;;;;;44.60;28.00;;;;;;;;;;498539;28;1575;-74
2024/01/13 00:03:01;;;;;;;40.83;25.77;;;;;;;;;;506103;28;1338;-75
2024/01/13 00:03:17;;;;;;;41.58;27.38;;;;;;;;;;496547;28;1198;-75
2024/01/13 00:03:32;;;;;;;42.35;28.85;;;;;;;;;;509577;28;1181;-75
2024/01/13 00:03:48;;;;;;;41.22;28.13;;;;;;;;;;509783;28;969;-75
2024/01/13 00:04:04;;;;;;;43.67;31.53;;;;;;;;;;496987;28;957;-74
2024/01/13 00:04:19;;;;;;;46.47;33.45;;;;;;;;;;499413;28;1083;-75
2024/01/13 00:04:35;;;;;;;43.15;29.23;;;;;;;;;;500231;28;1021;-75
2024/01/13 00:04:50;;;;;;;40.27;26.40;;;;;;;;;;509740;28;1993;-75
2024/01/13 00:05:06;;;;;;;40.65;25.90;;;;;;;;;;506451;28;1239;-75
2024/01/13 00:05:22;;;;;;;42.72;27.85;;;;;;;;;;498026;28;1143;-75
2024/01/13 00:05:38;;;;;;;40.63;26.95;;;;;;;;;;499565;28;1305;-75
2024/01/13 00:05:53;;;;;;;37.47;24.33;;;;;;;;;;507585;28;1440;-74
2024/01/13 00:06:09;;;;;;;39.28;27.60;;;;;;;;;;504858;28;1261;-74
2024/01/13 00:06:25;;;;;;;42.65;31.33;;;;;;;;;;503620;28;1341;-74
2024/01/13 00:06:41;;;;;;;42.83;29.13;;;;;;;;;;499893;28;1180;-75
2024/01/13 00:06:56;;;;;;;41.22;26.25;;;;;;;;;;496302;28;1495;-75
2024/01/13 00:07:12;;;;;;;37.35;23.90;;;;;;;;;;496372;28;1191;-75
2024/01/13 00:07:27;;;;;;;36.50;23.80;;;;;;;;;;494100;28;1013;-75
2024/01/13 00:07:43;;;;;;;38.38;25.08;;;;;;;;;;509464;28;1301;-75
2024/01/13 00:07:59;;;;;;;37.80;24.58;;;;;;;;;;506951;28;1124;-75
2024/01/13 00:08:14;;;;;;;36.63;23.30;;;;;;;;;;499065;28;1183;-75
2024/01/13 00:08:30;;;;;;;34.95;22.50;;;;;;;;;;507005;28;1573;-75
2024/01/13 00:08:46;;;;;;;35.72;22.75;;;;;;;;;;493931;28;1152;-74
2024/01/13 00:09:01;;;;;;;36.43;22.53;;;;;;;;;;493381;28;1191;-75
2024/01/13 00:09:17;;;;;;;34.75;22.15;;;;;;;;;;494496;28;1473;-75
2024/01/13 00:09:32;;;;;;;35.40;23.00;;;;;;;;;;498425;28;1306;-75
2024/01/13 00:09:48;;;;;;;36.13;23.47;;;;;;;;;;498625;28;1143;-74
2024/01/13 00:10:04;;;;;;;37.30;23.92;;;;;;;;;;495916;28;1183;-75
2024/01/13 00:10:20;;;;;;;39.00;24.63;;;;;;;;;;506195;28;1054;-74
2024/01/13 00:10:36;;;;;;;37.95;24.50;;;;;;;;;;501437;28;1233;-75
2024/01/13 00:10:51;;;;;;;38.65;24.23;;;;;;;;;;494707;28;1125;-75
2024/01/13 00:11:07;;;;;;;39.53;24.00;;;;;;;;;;495958;28;994;-75
2024/01/13 00:11:22;;;;;;;37.83;23.33;;;;;;;;;;501639;28;1361;-75
2024/01/13 00:11:38;;;;;;;36.17;22.60;;;;;;;;;;501691;28;1364;-75
2024/01/13 00:11:54;;;;;;;36.97;23.42;;;;;;;;;;506852;28;1211;-75
2024/01/13 00:12:09;;;;;;;37.90;23.98;;;;;;;;;;499888;28;1337;-75
2024/01/13 00:12:25;;;;;;;38.43;24.23;;;;;;;;;;495399;28;1156;-75
2024/01/13 00:12:40;;;;;;;36.85;23.40;;;;;;;;;;497450;28;1255;-75
2024/01/13 00:12:56;;;;;;;34.53;21.93;;;;;;;;;;494538;28;1196;-75
2024/01/13 00:13:12;;;;;;;33.85;21.48;;;;;;;;;;496748;28;1069;-75
2024/01/13 00:13:28;;;;;;;34.42;21.55;;;;;;;;;;501997;28;1065;-75
2024/01/13 00:13:43;;;;;;;35.28;21.63;;;;;;;;;;502668;28;1161;-75
2024/01/13 00:13:59;;;;;;;36.08;22.17;;;;;;;;;;507922;28;952;-75
2024/01/13 00:14:15;;;;;;;36.87;22.77;;;;;;;;;;502412;28;1139;-75
2024/01/13 00:14:30;;;;;;;34.53;22.08;;;;;;;;;;503270;28;1235;-75
2024/01/13 00:14:46;;;;;;;34.00;21.58;;;;;;;;;;493732;28;1269;-75
2024/01/13 00:15:02;;;;;;;36.37;22.50;;;;;;;;;;500623;28;915;-75
2024/01/13 00:15:18;;;;;;;36.63;23.33;;;;;;;;;;505065;28;1310;-75
2024/01/13 00:15:36;;;;;;;36.08;22.85;;;;;;;;;;502446;28;1145;-75
2024/01/13 00:15:51;;;;;;;34.28;22.30;;;;;;;;;;500119;28;1282;-75
2024/01/13 00:16:07;;;;;;;33.15;21.27;;;;;;;;;;500478;28;1265;-75
2024/01/13 00:16:22;;;;;;;33.10;20.67;;;;;;;;;;497988;28;1109;-75
2024/01/13 00:16:38;;;;;;;33.95;21.48;;;;;;;;;;500152;28;1180;-74
2024/01/13 00:16:54;;;;;;;35.07;21.97;;;;;;;;;;506121;28;1199;-75
2024/01/13 00:17:10;;;;;;;33.67;21.33;;;;;;;;;;501847;28;1397;-75
2024/01/13 00:17:25;;;;;;;35.45;21.48;;;;;;;;;;495215;28;1249;-75
2024/01/13 00:17:41;;;;;;;36.05;21.55;;;;;;;;;;494005;28;1195;-75
2024/01/13 00:17:57;;;;;;;33.08;20.90;;;;;;;;;;507363;28;1218;-75
2024/01/13 00:18:13;;;;;;;31.60;20.67;;;;;;;;;;501623;28;1334;-75
2024/01/13 00:18:29;;;;;;;33.38;21.17;;;;;;;;;;506099;28;1407;-75
2024/01/13 00:18:45;;;;;;;35.45;21.33;;;;;;;;;;498810;28;1084;-74
2024/01/13 00:19:00;;;;;;;36.03;20.90;;;;;;;;;;495986;28;1221;-75
2024/01/13 00:19:16;;;;;;;35.17;20.70;;;;;;;;;;492454;28;1251;-75
2024/01/13 00:19:32;;;;;;;33.10;20.75;;;;;;;;;;492800;28;1166;-75
2024/01/13 00:19:47;;;;;;;33.07;20.90;;;;;;;;;;495909;28;1204;-75
2024/01/13 00:20:04;;;;;;;34.22;21.40;;;;;;;;;;493255;28;1241;-75
2024/01/13 00:20:19;;;;;;;34.13;21.65;;;;;;;;;;490711;28;1551;-75
2024/01/13 00:20:35;;;;;;;33.92;21.42;;;;;;;;;;492914;28;1085;-74
2024/01/13 00:20:50;;;;;;;34.53;21.13;;;;;;;;;;493127;28;932;-75
2024/01/13 00:21:07;;;;;;;34.60;21.00;;;;;;;;;;498492;28;1338;-75
2024/01/13 00:21:22;;;;;;;34.55;21.48;;;;;;;;;;493697;28;1528;-75
2024/01/13 00:21:38;;;;;;;33.77;21.00;;;;;;;;;;495866;28;1422;-75
2024/01/13 00:21:54;;;;;;;32.17;20.17;;;;;;;;;;499172;28;981;-74
2024/01/13 00:22:12;;;;;;;32.43;20.30;;;;;;;;;;502912;28;1207;-75
2024/01/13 00:22:27;;;;;;;34.97;20.85;;;;;;;;;;498223;28;1407;-75
2024/01/13 00:22:47;;;;;;;33.47;20.63;;;;;;;;;;498252;28;1061;-75
2024/01/13 00:23:03;;;;;;;31.80;20.40;;;;;;;;;;498830;28;1072;-75
2024/01/13 00:23:18;;;;;;;32.93;20.63;;;;;;;;;;498297;28;1166;-75
2024/01/13 00:23:34;;;;;;;34.57;20.97;;;;;;;;;;498528;28;1300;-75
2024/01/13 00:23:49;;;;;;;33.38;20.40;;;;;;;;;;499799;28;1144;-74
2024/01/13 00:24:05;;;;;;;30.43;19.57;;;;;;;;;;496928;28;1250;-75
2024/01/13 00:24:21;;;;;;;30.45;19.95;;;;;;;;;;496974;28;1310;-74
2024/01/13 00:24:36;;;;;;;32.75;20.80;;;;;;;;;;496472;28;1190;-75
2024/01/13 00:24:52;;;;;;;34.53;21.70;;;;;;;;;;496668;28;1946;-75
2024/01/13 00:25:08;;;;;;;35.00;21.83;;;;;;;;;;501224;28;1184;-75
2024/01/13 00:25:23;;;;;;;32.53;21.02;;;;;;;;;;495218;28;1124;-74
2024/01/13 00:25:39;;;;;;;33.25;21.40;;;;;;;;;;494828;28;933;-75
2024/01/13 00:25:55;;;;;;;36.17;22.03;;;;;;;;;;497224;28;1063;-75
2024/01/13 00:26:11;;;;;;;36.63;22.05;;;;;;;;;;497078;28;1340;-75
2024/01/13 00:26:27;;;;;;;35.28;21.63;;;;;;;;;;495042;28;1211;-75
2024/01/13 00:26:43;;;;;;;32.88;20.75;;;;;;;;;;497808;28;1323;-75
2024/01/13 00:26:59;;;;;;;32.70;20.63;;;;;;;;;;495918;28;1111;-75
2024/01/13 00:27:14;;;;;;;32.42;20.67;;;;;;;;;;497132;28;968;-75
2024/01/13 00:27:30;;;;;;;32.13;20.42;;;;;;;;;;495045;28;1327;-75
2024/01/13 00:27:46;;;;;;;30.70;20.07;;;;;;;;;;494305;28;1376;-75
2024/01/13 00:28:02;;;;;;;29.33;19.40;;;;;;;;;;494220;28;953;-75
2024/01/13 00:28:18;;;;;;;29.58;19.23;;;;;;;;;;495132;28;962;-74
2024/01/13 00:28:33;;;;;;;29.67;19.17;;;;;;;;;;501400;28;1196;-75
2024/01/13 00:28:49;;;;;;;32.40;19.67;;;;;;;;;;505381;28;1088;-74
2024/01/13 00:29:05;;;;;;;34.67;21.70;;;;;;;;;;502429;28;1349;-75
2024/01/13 00:29:21;;;;;;;35.77;23.60;;;;;;;;;;495461;28;1268;-75
2024/01/13 00:29:37;;;;;;;35.50;23.63;;;;;;;;;;507135;28;972;-74
2024/01/13 00:29:53;;;;;;;34.10;22.35;;;;;;;;;;511668;28;1452;-75
2024/01/13 00:30:09;;;;;;;34.05;21.73;;;;;;;;;;503551;28;1104;-75
2024/01/13 00:30:24;;;;;;;33.97;21.10;;;;;;;;;;496882;28;1023;-75
2024/01/13 00:30:40;;;;;;;32.90;20.40;;;;;;;;;;494646;28;1218;-74
2024/01/13 00:30:56;;;;;;;31.67;19.75;;;;;;;;;;505227;28;1045;-75
2024/01/13 00:31:12;;;;;;;30.90;19.70;;;;;;;;;;498593;28;1194;-75
2024/01/13 00:31:27;;;;;;;31.40;20.37;;;;;;;;;;503732;28;975;-75
2024/01/13 00:31:43;;;;;;;31.48;20.60;;;;;;;;;;501624;28;1345;-75
2024/01/13 00:31:58;;;;;;;31.20;20.70;;;;;;;;;;504533;28;1250;-75
2024/01/13 00:32:14;;;;;;;30.77;20.08;;;;;;;;;;497366;28;1290;-74
2024/01/13 00:32:30;;;;;;;31.35;20.38;;;;;;;;;;500791;28;1630;-75
2024/01/13 00:32:46;;;;;;;32.47;21.60;;;;;;;;;;491311;28;1200;-75
2024/01/13 00:33:01;;;;;;;35.00;22.37;;;;;;;;;;490321;28;1137;-74
2024/01/13 00:33:17;;;;;;;37.25;23.13;;;;;;;;;;490378;28;1384;-75
2024/01/13 00:33:33;;;;;;;36.53;23.35;;;;;;;;;;491367;28;1348;-75
2024/01/13 00:33:49;;;;;;;35.80;23.60;;;;;;;;;;492236;28;1360;-75
2024/01/13 00:34:05;;;;;;;35.10;23.23;;;;;;;;;;492159;28;1303;-75
2024/01/13 00:34:20;;;;;;;35.65;22.83;;;;;;;;;;492652;28;1425;-75
2024/01/13 00:34:36;;;;;;;36.87;23.33;;;;;;;;;;492791;28;1396;-75
2024/01/13 00:34:52;;;;;;;36.97;23.73;;;;;;;;;;506280;28;1227;-75
2024/01/13 00:35:08;;;;;;;37.72;24.67;;;;;;;;;;500117;28;1206;-75
2024/01/13 00:35:24;;;;;;;38.97;25.25;;;;;;;;;;495345;28;1101;-75
2024/01/13 00:35:40;;;;;;;37.55;24.30;;;;;;;;;;494450;28;1444;-75
2024/01/13 00:35:55;;;;;;;35.17;22.88;;;;;;;;;;495980;28;1184;-75
2024/01/13 00:36:11;;;;;;;35.27;22.40;;;;;;;;;;498434;28;949;-74
2024/01/13 00:36:27;;;;;;;36.00;22.95;;;;;;;;;;494344;28;1358;-74
2024/01/13 00:36:43;;;;;;;36.95;24.33;;;;;;;;;;496501;28;1328;-74
2024/01/13 00:36:58;;;;;;;39.75;24.77;;;;;;;;;;495116;28;1225;-75
2024/01/13 00:37:14;;;;;;;38.10;23.20;;;;;;;;;;494182;28;1043;-75
2024/01/13 00:37:29;;;;;;;35.55;22.23;;;;;;;;;;493697;28;1183;-75
2024/01/13 00:37:45;;;;;;;35.25;22.02;;;;;;;;;;496230;28;1252;-75
2024/01/13 00:38:01;;;;;;;32.97;21.37;;;;;;;;;;494417;28;1204;-75
2024/01/13 00:38:17;;;;;;;32.92;21.23;;;;;;;;;;493952;28;1349;-75
2024/01/13 00:38:32;;;;;;;31.92;20.52;;;;;;;;;;493708;28;1153;-75
2024/01/13 00:38:48;;;;;;;32.33;20.33;;;;;;;;;;493218;28;1376;-74
2024/01/13 00:39:05;;;;;;;34.78;21.08;;;;;;;;;;492894;28;1055;-74
2024/01/13 00:39:21;;;;;;;35.28;21.85;;;;;;;;;;493631;28;1105;-75
2024/01/13 00:39:36;;;;;;;35.33;22.30;;;;;;;;;;492669;28;1221;-75
2024/01/13 00:39:52;;;;;;;34.55;22.08;;;;;;;;;;492689;28;1386;-75
2024/01/13 00:40:08;;;;;;;34.53;21.40;;;;;;;;;;495054;28;1086;-75
2024/01/13 00:40:24;;;;;;;32.65;20.35;;;;;;;;;;497888;28;1202;-75
2024/01/13 00:40:39;;;;;;;33.10;20.58;;;;;;;;;;494139;28;1215;-75
2024/01/13 00:40:55;;;;;;;34.42;21.17;;;;;;;;;;495807;28;1212;-74
2024/01/13 00:41:11;;;;;;;32.07;20.63;;;;;;;;;;495296;28;1314;-75
2024/01/13 00:41:27;;;;;;;32.42;21.40;;;;;;;;;;494859;28;996;-75
2024/01/13 00:41:43;;;;;;;36.33;22.90;;;;;;;;;;494153;28;916;-75
2024/01/13 00:41:58;;;;;;;37.15;23.17;;;;;;;;;;496447;28;1099;-75
2024/01/13 00:42:14;;;;;;;36.47;23.58;;;;;;;;;;494211;28;1240;-75
2024/01/13 00:42:30;;;;;;;35.50;23.00;;;;;;;;;;494638;28;1338;-75
2024/01/13 00:42:45;;;;;;;34.43;22.37;;;;;;;;;;496770;28;1050;-74
2024/01/13 00:43:01;;;;;;;33.95;22.75;;;;;;;;;;493987;28;1240;-74
2024/01/13 00:43:17;;;;;;;40.67;28.52;;;;;;;;;;491850;28;1336;-75
2024/01/13 00:43:33;;;;;;;46.93;34.07;;;;;;;;;;491206;28;1389;-75
2024/01/13 00:43:49;;;;;;;43.33;31.15;;;;;;;;;;491613;28;1422;-75
2024/01/13 00:44:04;;;;;;;36.83;25.75;;;;;;;;;;493655;28;1355;-75
2024/01/13 00:44:20;;;;;;;32.33;22.23;;;;;;;;;;491805;28;1070;-75
2024/01/13 00:44:35;;;;;;;32.88;21.83;;;;;;;;;;495845;28;1235;-75
2024/01/13 00:44:51;;;;;;;36.37;24.10;;;;;;;;;;493723;28;2025;-74
2024/01/13 00:45:07;;;;;;;35.60;24.08;;;;;;;;;;495283;28;1278;-75
2024/01/13 00:45:23;;;;;;;36.88;25.05;;;;;;;;;;495420;28;1227;-75
2024/01/13 00:45:38;;;;;;;39.05;26.70;;;;;;;;;;493994;28;1224;-75
2024/01/13 00:45:54;;;;;;;36.83;25.30;;;;;;;;;;492384;28;1300;-75
2024/01/13 00:46:10;;;;;;;38.10;26.02;;;;;;;;;;491828;28;1208;-75
2024/01/13 00:46:25;;;;;;;39.43;26.70;;;;;;;;;;490432;28;1274;-75
2024/01/13 00:46:41;;;;;;;36.35;24.90;;;;;;;;;;491424;28;1972;-75
2024/01/13 00:46:57;;;;;;;36.60;24.85;;;;;;;;;;492917;28;1238;-75
2024/01/13 00:47:12;;;;;;;36.30;25.00;;;;;;;;;;492345;28;1192;-74
2024/01/13 00:47:28;;;;;;;35.60;24.73;;;;;;;;;;493040;28;1115;-75
2024/01/13 00:47:44;;;;;;;35.70;24.48;;;;;;;;;;493471;28;1222;-75
2024/01/13 00:47:59;;;;;;;34.70;23.70;;;;;;;;;;495604;28;942;-75
2024/01/13 00:48:15;;;;;;;35.33;23.43;;;;;;;;;;494675;28;1168;-75
2024/01/13 00:48:31;;;;;;;35.97;24.10;;;;;;;;;;494349;28;962;-74
2024/01/13 00:48:46;;;;;;;35.83;24.52;;;;;;;;;;493460;28;1159;-75
2024/01/13 00:49:02;;;;;;;35.47;23.80;;;;;;;;;;492281;28;1099;-75
2024/01/13 00:49:18;;;;;;;33.70;21.92;;;;;;;;;;492100;28;1144;-75
2024/01/13 00:49:34;;;;;;;32.83;20.98;;;;;;;;;;494893;28;1214;-75
2024/01/13 00:49:49;;;;;;;31.00;20.13;;;;;;;;;;496704;28;1041;-75
2024/01/13 00:50:05;;;;;;;30.77;19.65;;;;;;;;;;496995;28;1378;-75
2024/01/13 00:50:21;;;;;;;33.03;21.13;;;;;;;;;;496593;28;1072;-75
2024/01/13 00:50:37;;;;;;;33.97;23.20;;;;;;;;;;496892;28;1005;-75
2024/01/13 00:50:52;;;;;;;33.88;23.35;;;;;;;;;;495434;28;1623;-73
2024/01/13 00:51:09;;;;;;;34.90;23.40;;;;;;;;;;493824;28;981;-75
2024/01/13 00:51:25;;;;;;;34.75;23.67;;;;;;;;;;495339;28;1243;-75
2024/01/13 00:51:41;;;;;;;34.13;23.87;;;;;;;;;;495476;28;1258;-75
2024/01/13 00:51:57;;;;;;;32.95;22.55;;;;;;;;;;493565;28;1232;-75
2024/01/13 00:52:12;;;;;;;31.95;21.17;;;;;;;;;;494373;28;1330;-75
2024/01/13 00:52:28;;;;;;;31.67;21.10;;;;;;;;;;494917;28;1380;-75
2024/01/13 00:52:44;;;;;;;33.03;21.37;;;;;;;;;;494185;28;1219;-75
2024/01/13 00:52:59;;;;;;;32.92;20.67;;;;;;;;;;491737;28;1311;-75
2024/01/13 00:53:15;;;;;;;31.42;19.40;;;;;;;;;;491968;28;1283;-75
2024/01/13 00:53:31;;;;;;;31.77;19.83;;;;;;;;;;491720;28;952;-75
2024/01/13 00:53:47;;;;;;;31.17;19.98;;;;;;;;;;491301;28;1402;-75
2024/01/13 00:54:06;;;;;;;31.88;19.63;;;;;;;;;;493672;28;1205;-75
2024/01/13 00:54:21;;;;;;;31.67;19.73;;;;;;;;;;490621;28;1041;-74
2024/01/13 00:54:37;;;;;;;31.13;20.20;;;;;;;;;;496634;28;1295;-75
2024/01/13 00:54:53;;;;;;;32.17;20.85;;;;;;;;;;491918;28;975;-75
2024/01/13 00:55:08;;;;;;;33.17;20.90;;;;;;;;;;492510;28;1200;-75
2024/01/13 00:55:24;;;;;;;32.65;20.63;;;;;;;;;;494388;28;980;-75
2024/01/13 00:55:39;;;;;;;30.53;19.77;;;;;;;;;;492653;28;1440;-75
2024/01/13 00:55:55;;;;;;;31.02;19.80;;;;;;;;;;492553;28;1140;-75
2024/01/13 00:56:12;;;;;;;32.33;20.15;;;;;;;;;;491493;28;1129;-75
2024/01/13 00:56:27;;;;;;;32.67;20.20;;;;;;;;;;493196;28;1159;-74
2024/01/13 00:56:43;;;;;;;31.58;19.25;;;;;;;;;;492449;28;1251;-74
2024/01/13 00:56:59;;;;;;;30.70;19.15;;;;;;;;;;496097;28;1235;-74
2024/01/13 00:57:14;;;;;;;30.97;19.57;;;;;;;;;;502093;28;1375;-74
2024/01/13 00:57:30;;;;;;;31.80;19.67;;;;;;;;;;497515;28;1207;-75
2024/01/13 00:57:46;;;;;;;30.67;19.63;;;;;;;;;;497427;28;1232;-75
2024/01/13 00:58:02;;;;;;;30.27;19.60;;;;;;;;;;497738;28;1330;-75
2024/01/13 00:58:18;;;;;;;31.02;19.90;;;;;;;;;;497370;28;1100;-74
2024/01/13 00:58:34;;;;;;;31.55;20.08;;;;;;;;;;497250;28;1056;-75
2024/01/13 00:58:49;;;;;;;33.47;20.90;;;;;;;;;;495916;28;1154;-74
2024/01/13 00:59:05;;;;;;;34.03;21.30;;;;;;;;;;495570;28;1025;-75
2024/01/13 00:59:21;;;;;;;33.80;20.98;;;;;;;;;;491890;28;1382;-74
2024/01/13 00:59:36;;;;;;;34.95;20.88;;;;;;;;;;492997;28;1058;-75
2024/01/13 00:59:52;;;;;;;32.53;20.03;;;;;;;;;;493839;28;1183;-75
2024/01/13 01:00:08;;;;;;;30.38;19.35;;;;;;;;;;492312;28;1165;-75
2024/01/13 01:00:24;;;;;;;32.03;19.77;;;;;;;;;;493012;28;1258;-75
2024/01/13 01:00:40;;;;;;;31.70;19.95;;;;;;;;;;495516;28;1164;-74
2024/01/13 01:00:59;;;;;;;32.50;20.65;;;;;;;;;;495482;28;1370;-75
2024/01/13 01:01:15;;;;;;;33.42;20.77;;;;;;;;;;497323;28;1238;-74
2024/01/13 01:01:31;;;;;;;32.60;20.45;;;;;;;;;;492954;28;1447;-75
2024/01/13 01:01:46;;;;;;;30.83;19.98;;;;;;;;;;495602;28;953;-74
2024/01/13 01:02:02;;;;;;;31.07;19.87;;;;;;;;;;490684;28;1155;-75
2024/01/13 01:02:18;;;;;;;31.80;19.98;;;;;;;;;;493091;28;1352;-75
2024/01/13 01:02:33;;;;;;;32.33;19.98;;;;;;;;;;493767;28;995;-75
2024/01/13 01:02:49;;;;;;;32.35;20.42;;;;;;;;;;492153;28;1389;-75
2024/01/13 01:03:05;;;;;;;30.17;19.60;;;;;;;;;;492643;28;1188;-75
2024/01/13 01:03:20;;;;;;;28.35;18.48;;;;;;;;;;493718;28;1334;-75
2024/01/13 01:03:36;;;;;;;28.92;18.20;;;;;;;;;;494236;28;1154;-74
2024/01/13 01:03:52;;;;;;;30.67;19.33;;;;;;;;;;494392;28;1227;-75
2024/01/13 01:04:08;;;;;;;33.17;20.95;;;;;;;;;;490728;28;1330;-75
2024/01/13 01:04:23;;;;;;;34.38;21.65;;;;;;;;;;492077;28;1330;-75
2024/01/13 01:04:39;;;;;;;33.78;21.40;;;;;;;;;;493541;28;1395;-75
2024/01/13 01:04:55;;;;;;;32.80;20.87;;;;;;;;;;492235;28;1950;-75
2024/01/13 01:05:10;;;;;;;34.10;21.13;;;;;;;;;;496087;28;1259;-75
2024/01/13 01:05:27;;;;;;;35.22;20.92;;;;;;;;;;494133;28;927;-75
2024/01/13 01:05:42;;;;;;;34.75;20.88;;;;;;;;;;495596;28;1317;-75
2024/01/13 01:05:58;;;;;;;32.40;20.50;;;;;;;;;;493087;28;1345;-75
2024/01/13 01:06:14;;;;;;;31.17;20.17;;;;;;;;;;494111;28;1215;-75
2024/01/13 01:06:30;;;;;;;32.95;20.85;;;;;;;;;;493603;28;1076;-75
2024/01/13 01:07:00;;;;;;;34.20;21.07;;;;;;;;;;491904;28;972;-75
2024/01/13 01:07:17;;;;;;;34.50;21.27;;;;;;;;;;493591;28;1600;-75
2024/01/13 01:07:32;;;;;;;34.20;21.63;;;;;;;;;;495260;28;1120;-75
2024/01/13 01:07:48;;;;;;;32.33;20.75;;;;;;;;;;495772;28;1077;-75
2024/01/13 01:08:04;;;;;;;30.30;19.60;;;;;;;;;;495735;28;1263;-75
2024/01/13 01:08:19;;;;;;;29.73;19.53;;;;;;;;;;493495;28;1305;-75
2024/01/13 01:08:35;;;;;;;31.67;20.35;;;;;;;;;;493340;28;1127;-75
2024/01/13 01:08:51;;;;;;;34.65;21.60;;;;;;;;;;492691;28;1033;-74
2024/01/13 01:09:07;;;;;;;35.07;21.97;;;;;;;;;;493862;28;1088;-75
2024/01/13 01:09:22;;;;;;;33.37;21.40;;;;;;;;;;497008;28;1348;-75
2024/01/13 01:09:38;;;;;;;33.63;21.48;;;;;;;;;;494607;28;1282;-74
2024/01/13 01:09:54;;;;;;;34.38;21.65;;;;;;;;;;495716;28;1084;-75
2024/01/13 01:10:10;;;;;;;33.83;21.50;;;;;;;;;;494954;28;1366;-75
2024/01/13 01:10:25;;;;;;;34.07;21.43;;;;;;;;;;496367;28;1124;-75
2024/01/13 01:10:41;;;;;;;34.50;21.38;;;;;;;;;;493890;28;1239;-75
2024/01/13 01:10:57;;;;;;;35.17;21.67;;;;;;;;;;493932;28;1000;-74
2024/01/13 01:11:13;;;;;;;35.83;21.50;;;;;;;;;;494799;28;1259;-75
2024/01/13 01:11:28;;;;;;;36.92;22.38;;;;;;;;;;491868;28;1163;-75
2024/01/13 01:11:44;;;;;;;35.77;22.33;;;;;;;;;;493983;28;1179;-75
2024/01/13 01:12:00;;;;;;;36.15;21.52;;;;;;;;;;494299;28;1394;-74
2024/01/13 01:12:16;;;;;;;36.47;21.60;;;;;;;;;;495147;28;1347;-75
2024/01/13 01:12:31;;;;;;;35.08;21.98;;;;;;;;;;494245;28;1380;-75
2024/01/13 01:12:47;;;;;;;35.13;22.50;;;;;;;;;;495505;28;1359;-75
2024/01/13 01:13:03;;;;;;;35.50;22.60;;;;;;;;;;494163;28;1070;-75
2024/01/13 01:13:19;;;;;;;37.13;22.67;;;;;;;;;;493545;28;957;-75
2024/01/13 01:13:35;;;;;;;37.65;22.38;;;;;;;;;;490599;28;1354;-75
2024/01/13 01:13:50;;;;;;;36.63;22.30;;;;;;;;;;492055;28;1179;-75
2024/01/13 01:14:06;;;;;;;37.83;22.90;;;;;;;;;;491693;28;1251;-75
2024/01/13 01:14:22;;;;;;;38.20;23.00;;;;;;;;;;491477;28;1396;-75
2024/01/13 01:14:38;;;;;;;37.33;22.75;;;;;;;;;;492360;28;1407;-74
2024/01/13 01:14:53;;;;;;;35.65;22.45;;;;;;;;;;489028;28;1232;-75
2024/01/13 01:15:09;;;;;;;35.13;22.00;;;;;;;;;;487975;28;1284;-74
2024/01/13 01:15:25;;;;;;;35.47;21.40;;;;;;;;;;491787;28;1285;-75
2024/01/13 01:15:40;;;;;;;36.13;21.48;;;;;;;;;;489954;28;1215;-74
2024/01/13 01:15:56;;;;;;;35.70;21.30;;;;;;;;;;488044;28;1342;-74
2024/01/13 01:16:13;;;;;;;32.83;20.45;;;;;;;;;;491091;28;1240;-75
2024/01/13 01:16:29;;;;;;;31.30;19.85;;;;;;;;;;490719;28;1275;-75
2024/01/13 01:16:44;;;;;;;32.25;20.17;;;;;;;;;;491179;28;1506;-75
2024/01/13 01:17:00;;;;;;;33.58;21.30;;;;;;;;;;489704;28;1251;-75
2024/01/13 01:17:16;;;;;;;36.00;22.80;;;;;;;;;;490532;28;1043;-75
2024/01/13 01:17:31;;;;;;;36.10;22.50;;;;;;;;;;489630;28;1132;-75
2024/01/13 01:17:47;;;;;;;35.80;21.73;;;;;;;;;;487694;28;1287;-75
2024/01/13 01:18:03;;;;;;;35.28;21.40;;;;;;;;;;490833;28;1167;-74
2024/01/13 01:18:19;;;;;;;34.92;21.70;;;;;;;;;;491393;28;1098;-75
2024/01/13 01:18:35;;;;;;;35.67;21.77;;;;;;;;;;492729;28;1263;-75
2024/01/13 01:18:52;;;;;;;35.37;21.00;;;;;;;;;;492938;28;1085;-75
2024/01/13 01:19:08;;;;;;;33.63;20.33;;;;;;;;;;496094;28;1105;-76
2024/01/13 01:19:24;;;;;;;33.10;20.20;;;;;;;;;;496929;28;1024;-75
2024/01/13 01:19:39;;;;;;;32.42;19.90;;;;;;;;;;492575;28;1174;-76
2024/01/13 01:19:55;;;;;;;33.10;20.40;;;;;;;;;;492648;28;1057;-75
2024/01/13 01:20:11;;;;;;;34.20;20.88;;;;;;;;;;492096;28;1255;-75
2024/01/13 01:20:27;;;;;;;35.25;20.70;;;;;;;;;;497848;28;1168;-75
2024/01/13 01:20:42;;;;;;;33.97;20.27;;;;;;;;;;496311;28;1315;-75
2024/01/13 01:20:58;;;;;;;32.85;20.23;;;;;;;;;;492870;28;1046;-75
2024/01/13 01:21:15;;;;;;;31.40;19.77;;;;;;;;;;497313;28;1342;-75
2024/01/13 01:21:31;;;;;;;29.08;19.02;;;;;;;;;;495234;28;1113;-75
2024/01/13 01:21:46;;;;;;;29.90;19.38;;;;;;;;;;494856;28;1215;-74
2024/01/13 01:22:02;;;;;;;29.53;19.10;;;;;;;;;;492211;28;1171;-75
2024/01/13 01:22:18;;;;;;;29.88;19.30;;;;;;;;;;489876;28;1168;-75
2024/01/13 01:22:34;;;;;;;32.47;20.23;;;;;;;;;;489831;28;1136;-75
2024/01/13 01:22:49;;;;;;;32.28;19.83;;;;;;;;;;489253;28;1366;-75
2024/01/13 01:23:05;;;;;;;32.10;19.70;;;;;;;;;;490746;28;1319;-75
2024/01/13 01:23:21;;;;;;;32.83;20.15;;;;;;;;;;490360;28;966;-75
2024/01/13 01:23:36;;;;;;;34.35;20.17;;;;;;;;;;490844;28;1074;-75
2024/01/13 01:23:52;;;;;;;36.03;20.37;;;;;;;;;;492689;28;1033;-75
2024/01/13 01:24:08;;;;;;;36.50;21.35;;;;;;;;;;492062;28;1248;-75
2024/01/13 01:24:24;;;;;;;34.17;21.35;;;;;;;;;;495255;28;1243;-76
2024/01/13 01:24:39;;;;;;;32.75;20.40;;;;;;;;;;496100;28;1002;-76
2024/01/13 01:24:55;;;;;;;34.17;20.85;;;;;;;;;;494222;28;1948;-75
2024/01/13 01:25:11;;;;;;;32.80;20.47;;;;;;;;;;492808;28;1095;-75
2024/01/13 01:25:27;;;;;;;33.03;20.60;;;;;;;;;;493328;28;933;-75
2024/01/13 01:25:42;;;;;;;33.90;20.77;;;;;;;;;;493329;28;1423;-75
2024/01/13 01:25:58;;;;;;;36.07;21.30;;;;;;;;;;494306;28;1285;-75
2024/01/13 01:26:14;;;;;;;36.70;22.02;;;;;;;;;;495278;28;1514;-75
2024/01/13 01:26:30;;;;;;;33.08;20.92;;;;;;;;;;493100;28;1357;-75
2024/01/13 01:26:46;;;;;;;32.83;20.25;;;;;;;;;;494011;28;1085;-75
2024/01/13 01:27:02;;;;;;;33.63;20.58;;;;;;;;;;495001;28;1154;-75
2024/01/13 01:27:18;;;;;;;33.88;20.85;;;;;;;;;;495452;28;1501;-74
2024/01/13 01:27:34;;;;;;;35.90;21.33;;;;;;;;;;495465;28;997;-75
2024/01/13 01:27:49;;;;;;;36.10;21.67;;;;;;;;;;495105;28;937;-75
2024/01/13 01:28:05;;;;;;;35.55;21.45;;;;;;;;;;493638;28;1340;-75
2024/01/13 01:28:22;;;;;;;36.00;21.43;;;;;;;;;;495063;28;1155;-75
2024/01/13 01:28:38;;;;;;;34.22;21.73;;;;;;;;;;492868;28;988;-75
2024/01/13 01:28:54;;;;;;;33.17;21.35;;;;;;;;;;492492;28;1356;-75
2024/01/13 01:29:09;;;;;;;33.28;21.15;;;;;;;;;;490838;28;1368;-75
2024/01/13 01:29:26;;;;;;;35.97;21.88;;;;;;;;;;492456;28;1065;-75
2024/01/13 01:29:41;;;;;;;38.20;22.05;;;;;;;;;;492600;28;1048;-75
2024/01/13 01:29:57;;;;;;;36.70;22.10;;;;;;;;;;491919;28;1274;-75
2024/01/13 01:30:13;;;;;;;35.10;22.00;;;;;;;;;;489878;28;1222;-75
2024/01/13 01:30:28;;;;;;;35.15;21.70;;;;;;;;;;488441;28;1497;-75
2024/01/13 01:30:44;;;;;;;34.58;20.92;;;;;;;;;;489608;28;996;-75
2024/01/13 01:31:00;;;;;;;31.95;19.90;;;;;;;;;;489499;28;1290;-76
2024/01/13 01:31:16;;;;;;;30.10;19.20;;;;;;;;;;490292;28;1316;-77
2024/01/13 01:31:31;;;;;;;31.48;20.05;;;;;;;;;;490225;28;1248;-77
2024/01/13 01:31:47;;;;;;;33.10;20.40;;;;;;;;;;489579;28;1354;-76
2024/01/13 01:32:03;;;;;;;32.63;20.13;;;;;;;;;;490613;28;1121;-77
2024/01/13 01:32:18;;;;;;;31.17;20.20;;;;;;;;;;493372;28;992;-77
2024/01/13 01:32:34;;;;;;;30.92;20.35;;;;;;;;;;490422;28;1204;-74
2024/01/13 01:32:50;;;;;;;32.88;21.15;;;;;;;;;;491346;28;1230;-74
2024/01/13 01:33:06;;;;;;;33.20;21.63;;;;;;;;;;492602;28;1411;-75
2024/01/13 01:33:22;;;;;;;32.38;21.38;;;;;;;;;;490422;28;1235;-74
2024/01/13 01:33:37;;;;;;;33.22;21.02;;;;;;;;;;490851;28;1006;-74
2024/01/13 01:33:53;;;;;;;33.57;21.13;;;;;;;;;;491872;28;1283;-74
2024/01/13 01:34:09;;;;;;;33.17;20.75;;;;;;;;;;489214;28;957;-74
2024/01/13 01:34:25;;;;;;;32.42;19.98;;;;;;;;;;490402;28;1216;-74
2024/01/13 01:34:40;;;;;;;31.60;20.20;;;;;;;;;;489216;28;1463;-75
2024/01/13 01:34:56;;;;;;;34.78;21.17;;;;;;;;;;489893;28;1306;-74
2024/01/13 01:35:12;;;;;;;34.97;21.05;;;;;;;;;;491800;28;1345;-74